4XCWC LLHA-LLHA
Flight info
| Callsign | 4XCWC |
|---|---|
| Flight time | 0h 33m |
| Altitude | 1200 |
| Route | LLHA CIRCUIT |
| Aircraft | TBM9/L-V/N |
Departure
| Time | 2026-05-04 15:48 |
|---|---|
| Airport | Uri Michaeli Haifa International Airport (LLHA) |
Arrival
| Time | 2026-05-04 16:22 |
|---|---|
| Airport | Uri Michaeli Haifa International Airport (LLHA) |
| Time | Latitude | Longitude | Altitude | Speed | Heading |
|---|---|---|---|---|---|
| 2026-05-04 15:47 | 32.80712 | 35.04496 | 10 ft | 1 kts | 160° |
| 2026-05-04 15:47 | 32.80627 | 35.04534 | 9 ft | 4 kts | 119° |
| 2026-05-04 15:47 | 32.80682 | 35.04519 | 10 ft | 31 kts | 339° |
| 2026-05-04 15:47 | 32.81087 | 35.04345 | 50 ft | 91 kts | 339° |
| 2026-05-04 15:48 | 32.81767 | 35.04075 | 399 ft | 117 kts | 332° |
| 2026-05-04 15:48 | 32.82689 | 35.04152 | 775 ft | 165 kts | 34° |
| 2026-05-04 15:48 | 32.81650 | 35.06415 | 1138 ft | 188 kts | 148° |
| 2026-05-04 15:49 | 32.80641 | 35.07376 | 1224 ft | 186 kts | 149° |
| 2026-05-04 15:49 | 32.79551 | 35.08178 | 1188 ft | 181 kts | 173° |
| 2026-05-04 15:49 | 32.78329 | 35.08208 | 1044 ft | 175 kts | 200° |
| 2026-05-04 15:49 | 32.77309 | 35.07455 | 863 ft | 189 kts | 254° |
| 2026-05-04 15:50 | 32.77828 | 35.06310 | 815 ft | 153 kts | 313° |
| 2026-05-04 15:50 | 32.78537 | 35.05637 | 746 ft | 97 kts | 315° |
| 2026-05-04 15:50 | 32.79050 | 35.05244 | 672 ft | 89 kts | 315° |
| 2026-05-04 15:50 | 32.79685 | 35.04993 | 469 ft | 96 kts | 333° |
| 2026-05-04 15:51 | 32.80213 | 35.04731 | 175 ft | 75 kts | 337° |
| 2026-05-04 15:51 | 32.80682 | 35.04520 | 26 ft | 67 kts | 339° |
| 2026-05-04 15:51 | 32.81097 | 35.04344 | 12 ft | 76 kts | 337° |
| 2026-05-04 15:51 | 32.81746 | 35.04079 | 244 ft | 114 kts | 337° |
| 2026-05-04 15:52 | 32.82608 | 35.04109 | 647 ft | 155 kts | 38° |
| 2026-05-04 15:52 | 32.82542 | 35.05318 | 961 ft | 179 kts | 143° |
| 2026-05-04 15:52 | 32.81408 | 35.06171 | 1096 ft | 203 kts | 151° |
| 2026-05-04 15:52 | 32.80153 | 35.07050 | 1449 ft | 216 kts | 149° |
| 2026-05-04 15:53 | 32.78742 | 35.07949 | 1323 ft | 240 kts | 162° |
| 2026-05-04 15:53 | 32.77246 | 35.07490 | 1152 ft | 236 kts | 240° |
| 2026-05-04 15:53 | 32.77879 | 35.06117 | 1039 ft | 191 kts | 328° |
| 2026-05-04 15:53 | 32.78838 | 35.05347 | 993 ft | 124 kts | 322° |
| 2026-05-04 15:54 | 32.79172 | 35.05106 | 755 ft | 106 kts | 333° |
| 2026-05-04 15:54 | 32.79306 | 35.05036 | 599 ft | 108 kts | 338° |
| 2026-05-04 15:54 | 32.79992 | 35.04824 | 224 ft | 87 kts | 337° |
| 2026-05-04 15:55 | 32.80515 | 35.04594 | 40 ft | 75 kts | 340° |
| 2026-05-04 15:55 | 32.80946 | 35.04411 | 12 ft | 57 kts | 339° |
| 2026-05-04 15:55 | 32.81433 | 35.04197 | 123 ft | 90 kts | 340° |
| 2026-05-04 15:55 | 32.82077 | 35.03939 | 470 ft | 111 kts | 346° |
| 2026-05-04 15:56 | 32.82767 | 35.04473 | 583 ft | 155 kts | 82° |
| 2026-05-04 15:56 | 32.82121 | 35.05510 | 787 ft | 179 kts | 149° |
| 2026-05-04 15:56 | 32.81018 | 35.06372 | 991 ft | 201 kts | 145° |
| 2026-05-04 15:56 | 32.79815 | 35.07377 | 986 ft | 223 kts | 143° |
| 2026-05-04 15:57 | 32.78365 | 35.08097 | 935 ft | 235 kts | 179° |
| 2026-05-04 15:57 | 32.77230 | 35.07054 | 887 ft | 212 kts | 274° |
| 2026-05-04 15:57 | 32.78016 | 35.06033 | 1157 ft | 120 kts | 327° |
| 2026-05-04 15:57 | 32.78575 | 35.05595 | 1029 ft | 88 kts | 327° |
| 2026-05-04 15:58 | 32.79084 | 35.05187 | 624 ft | 90 kts | 329° |
| 2026-05-04 15:58 | 32.79656 | 35.04958 | 350 ft | 78 kts | 341° |
| 2026-05-04 15:58 | 32.80154 | 35.04737 | 137 ft | 74 kts | 349° |
| 2026-05-04 15:58 | 32.80620 | 35.04544 | 35 ft | 73 kts | 340° |
| 2026-05-04 15:59 | 32.81067 | 35.04359 | 12 ft | 74 kts | 341° |
| 2026-05-04 15:59 | 32.81578 | 35.04151 | 389 ft | 73 kts | 326° |
| 2026-05-04 15:59 | 32.82169 | 35.03855 | 589 ft | 105 kts | 354° |
| 2026-05-04 15:59 | 32.82796 | 35.04332 | 883 ft | 130 kts | 76° |
| 2026-05-04 16:00 | 32.82341 | 35.05332 | 977 ft | 167 kts | 150° |
| 2026-05-04 16:00 | 32.81385 | 35.06248 | 1222 ft | 190 kts | 142° |
| 2026-05-04 16:00 | 32.80262 | 35.07209 | 1214 ft | 196 kts | 147° |
| 2026-05-04 16:00 | 32.78962 | 35.07990 | 1103 ft | 223 kts | 163° |
| 2026-05-04 16:01 | 32.77456 | 35.07756 | 958 ft | 234 kts | 224° |
| 2026-05-04 16:01 | 32.77689 | 35.06330 | 949 ft | 163 kts | 318° |
| 2026-05-04 16:01 | 32.78345 | 35.05740 | 818 ft | 98 kts | 323° |
| 2026-05-04 16:01 | 32.78880 | 35.05339 | 546 ft | 81 kts | 330° |
| 2026-05-04 16:02 | 32.79318 | 35.05030 | 392 ft | 70 kts | 346° |
| 2026-05-04 16:02 | 32.79805 | 35.04904 | 292 ft | 78 kts | 341° |
| 2026-05-04 16:02 | 32.80833 | 35.04456 | 11 ft | 69 kts | 341° |
| 2026-05-04 16:03 | 32.81244 | 35.04281 | 95 ft | 63 kts | 339° |
| 2026-05-04 16:03 | 32.81804 | 35.04030 | 208 ft | 106 kts | 340° |
| 2026-05-04 16:03 | 32.82544 | 35.03945 | 575 ft | 126 kts | 40° |
| 2026-05-04 16:03 | 32.82682 | 35.05042 | 696 ft | 163 kts | 134° |
| 2026-05-04 16:04 | 32.81691 | 35.05794 | 1055 ft | 180 kts | 149° |
| 2026-05-04 16:04 | 32.79259 | 35.07573 | 1216 ft | 223 kts | 148° |
| 2026-05-04 16:04 | 32.77739 | 35.07978 | 962 ft | 239 kts | 201° |
| 2026-05-04 16:05 | 32.77586 | 35.06507 | 867 ft | 203 kts | 316° |
| 2026-05-04 16:05 | 32.78562 | 35.05598 | 779 ft | 140 kts | 324° |
| 2026-05-04 16:05 | 32.79840 | 35.04888 | 255 ft | 88 kts | 342° |
| 2026-05-04 16:06 | 32.80373 | 35.04657 | 68 ft | 76 kts | 339° |
| 2026-05-04 16:06 | 32.81479 | 35.04175 | 25 ft | 95 kts | 340° |
| 2026-05-04 16:07 | 32.82425 | 35.03899 | 510 ft | 121 kts | 23° |
| 2026-05-04 16:07 | 32.80937 | 35.06650 | 1295 ft | 194 kts | 120° |
| 2026-05-04 16:08 | 32.81085 | 35.08216 | 1444 ft | 211 kts | 56° |
| 2026-05-04 16:08 | 32.82572 | 35.10617 | 1913 ft | 216 kts | 55° |
| 2026-05-04 16:09 | 32.84955 | 35.12509 | 1671 ft | 220 kts | 350° |
| 2026-05-04 16:09 | 32.87985 | 35.12090 | 2134 ft | 219 kts | 356° |
| 2026-05-04 16:10 | 32.90996 | 35.11756 | 2710 ft | 183 kts | 355° |
| 2026-05-04 16:11 | 32.92818 | 35.11278 | 2980 ft | 138 kts | 154° |
| 2026-05-04 16:11 | 32.92977 | 35.12160 | 3134 ft | 153 kts | 30° |
| 2026-05-04 16:12 | 32.93341 | 35.13270 | 3026 ft | 125 kts | 240° |
| 2026-05-04 16:12 | 32.94004 | 35.11353 | 2937 ft | 137 kts | 87° |
| 2026-05-04 16:13 | 32.93746 | 35.11772 | 2825 ft | 153 kts | 169° |
| 2026-05-04 16:13 | 32.94003 | 35.11703 | 3262 ft | 166 kts | 102° |
| 2026-05-04 16:14 | 32.93538 | 35.14598 | 3479 ft | 191 kts | 44° |
| 2026-05-04 16:14 | 32.93911 | 35.13263 | 3646 ft | 205 kts | 176° |
| 2026-05-04 16:15 | 32.94712 | 35.13439 | 3506 ft | 209 kts | 224° |
| 2026-05-04 16:16 | 32.93660 | 35.14997 | 3529 ft | 212 kts | 11° |
| 2026-05-04 16:16 | 32.93820 | 35.10850 | 3153 ft | 151 kts | 209° |
| 2026-05-04 16:17 | 32.93299 | 35.11700 | 3087 ft | 103 kts | 26° |
| 2026-05-04 16:18 | 32.95571 | 35.12720 | 2822 ft | 188 kts | 12° |
| 2026-05-04 16:18 | 32.96732 | 35.12954 | 2867 ft | 155 kts | 2° |
| 2026-05-04 16:19 | 32.96161 | 35.11699 | 2913 ft | 87 kts | 192° |
| 2026-05-04 16:19 | 32.94788 | 35.11302 | 2614 ft | 77 kts | 195° |
| 2026-05-04 16:20 | 32.93636 | 35.10833 | 2137 ft | 63 kts | 201° |
| 2026-05-04 16:20 | 32.92569 | 35.10514 | 1215 ft | 101 kts | 185° |
| 2026-05-04 16:21 | 32.92994 | 35.10767 | 421 ft | 69 kts | 264° |
| 2026-05-04 16:22 | 32.92328 | 35.10510 | 42 ft | 0 kts | 183° |
| 2026-05-04 16:22 | 32.92585 | 35.10504 | 47 ft | 0 kts | 177° |
| 2026-05-04 16:23 | 32.94098 | 35.11227 | 1420 ft | 181 kts | 1° |
| 2026-05-04 16:24 | 32.96442 | 35.13394 | 2821 ft | 208 kts | 191° |
| 2026-05-04 16:25 | 32.93571 | 35.12465 | 3448 ft | 220 kts | 184° |
| 2026-05-04 16:26 | 32.96946 | 35.13663 | 4190 ft | 237 kts | 276° |
| 2026-05-04 16:26 | 32.93402 | 35.10332 | 4610 ft | 234 kts | 297° |
| 2026-05-04 16:27 | 32.96576 | 35.10670 | 4164 ft | 262 kts | 38° |
| 2026-05-04 16:28 | 32.94680 | 35.12832 | 4240 ft | 171 kts | 190° |
| 2026-05-04 16:28 | 32.93611 | 35.14781 | 4103 ft | 217 kts | 25° |
| 2026-05-04 16:29 | 32.96713 | 35.12965 | 3982 ft | 144 kts | 146° |
| 2026-05-04 16:30 | 32.94040 | 35.13471 | 3841 ft | 126 kts | 219° |
| 2026-05-04 16:31 | 32.94266 | 35.11864 | 3830 ft | 120 kts | 346° |
| 2026-05-04 16:31 | 32.95390 | 35.11994 | 3833 ft | 120 kts | 26° |
| 2026-05-04 16:32 | 32.95329 | 35.13634 | 3855 ft | 116 kts | 160° |
| 2026-05-04 16:33 | 32.94394 | 35.12641 | 3882 ft | 111 kts | 289° |
| 2026-05-04 16:33 | 32.95576 | 35.12616 | 3917 ft | 112 kts | 71° |
| 2026-05-04 16:34 | 32.96565 | 35.13496 | 3928 ft | 109 kts | 322° |
| 2026-05-04 16:34 | 32.96781 | 35.12703 | 3939 ft | 107 kts | 249° |
| 2026-05-04 16:35 | 32.94652 | 35.12071 | 3911 ft | 118 kts | 185° |
| 2026-05-04 16:35 | 32.92015 | 35.11923 | 3596 ft | 132 kts | 188° |
| 2026-05-04 16:36 | 32.91118 | 35.11674 | 3508 ft | 131 kts | 192° |
| 2026-05-04 16:36 | 32.89362 | 35.11682 | 3505 ft | 124 kts | 174° |
| 2026-05-04 16:37 | 32.87669 | 35.11933 | 3496 ft | 121 kts | 171° |
| 2026-05-04 16:37 | 32.86947 | 35.12083 | 3492 ft | 120 kts | 171° |
| 2026-05-04 16:37 | 32.85410 | 35.12304 | 3483 ft | 120 kts | 175° |
| 2026-05-04 16:38 | 32.83792 | 35.12284 | 3483 ft | 118 kts | 210° |
| 2026-05-04 16:39 | 32.82364 | 35.10006 | 3393 ft | 124 kts | 229° |
| 2026-05-04 16:39 | 32.80878 | 35.08717 | 2768 ft | 146 kts | 216° |
| 2026-05-04 16:40 | 32.78305 | 35.08099 | 978 ft | 250 kts | 173° |
| 2026-05-04 16:40 | 32.78103 | 35.05997 | 729 ft | 131 kts | 319° |
| 2026-05-04 16:41 | 32.79196 | 35.05163 | 428 ft | 91 kts | 328° |
| 2026-05-04 16:41 | 32.80597 | 35.04560 | 20 ft | 69 kts | 339° |
| 2026-05-04 16:42 | 32.81147 | 35.04230 | 14 ft | 14 kts | 251° |
| 2026-05-04 16:43 | 32.81135 | 35.04083 | 14 ft | 1 kts | 248° |